createdAt,value
2018-12-31T00:00:13.284Z,1025.83
2018-12-31T00:01:13.230Z,1025.82
2018-12-31T00:02:13.216Z,1025.78
2018-12-31T00:03:13.239Z,1025.76
2018-12-31T00:04:13.203Z,1025.76
2018-12-31T00:05:13.280Z,1025.76
2018-12-31T00:06:13.177Z,1025.71
2018-12-31T00:07:13.267Z,1025.74
2018-12-31T00:08:13.143Z,1025.70
2018-12-31T00:09:13.234Z,1025.72
2018-12-31T00:10:13.192Z,1025.72
2018-12-31T00:11:13.117Z,1025.76
2018-12-31T00:12:13.101Z,1025.80
2018-12-31T00:13:13.092Z,1025.75
2018-12-31T00:14:13.117Z,1025.80
2018-12-31T00:15:13.110Z,1025.79
2018-12-31T00:16:13.071Z,1025.82
2018-12-31T00:17:13.121Z,1025.87
2018-12-31T00:18:13.044Z,1025.91
2018-12-31T00:19:13.046Z,1025.90
2018-12-31T00:20:13.059Z,1025.86
2018-12-31T00:21:13.018Z,1025.96
2018-12-31T00:22:13.017Z,1025.90
2018-12-31T00:23:13.016Z,1025.92
2018-12-31T00:24:13.516Z,1025.90
2018-12-31T00:25:12.979Z,1025.94
2018-12-31T00:26:12.986Z,1025.94
2018-12-31T00:27:13.473Z,1025.95
2018-12-31T00:28:13.271Z,1025.97
2018-12-31T00:29:13.612Z,1025.94
2018-12-31T00:30:12.930Z,1025.97
2018-12-31T00:31:12.913Z,1026.00
2018-12-31T00:32:12.942Z,1026.07
2018-12-31T00:33:12.896Z,1026.09
2018-12-31T00:34:12.880Z,1026.10
2018-12-31T00:35:13.022Z,1026.16
2018-12-31T00:36:12.862Z,1026.14
2018-12-31T00:37:12.873Z,1026.14
2018-12-31T00:38:12.830Z,1026.17
2018-12-31T00:39:12.827Z,1026.26
2018-12-31T00:40:12.840Z,1026.18
2018-12-31T00:41:12.802Z,1026.24
2018-12-31T00:42:12.789Z,1026.22
2018-12-31T00:43:12.840Z,1026.30
2018-12-31T00:44:12.779Z,1026.27
2018-12-31T00:45:12.767Z,1026.33
2018-12-31T00:46:12.759Z,1026.33
2018-12-31T00:47:12.746Z,1026.32
2018-12-31T00:48:12.737Z,1026.34
2018-12-31T00:49:12.740Z,1026.31
2018-12-31T00:50:12.724Z,1026.28
2018-12-31T00:51:12.694Z,1026.27
2018-12-31T00:52:12.698Z,1026.21
2018-12-31T00:53:12.680Z,1026.17
2018-12-31T00:54:12.707Z,1026.15
2018-12-31T00:55:12.654Z,1026.12
2018-12-31T00:56:12.649Z,1026.12
2018-12-31T00:57:12.639Z,1026.15
2018-12-31T00:58:12.638Z,1026.16
2018-12-31T00:59:12.649Z,1026.15
2018-12-31T01:00:12.650Z,1026.19
2018-12-31T01:01:12.616Z,1026.14
2018-12-31T01:02:12.610Z,1026.15
2018-12-31T01:03:12.584Z,1026.14
2018-12-31T01:04:12.570Z,1026.08
2018-12-31T01:05:12.584Z,1026.08
2018-12-31T01:06:12.580Z,1026.06
2018-12-31T01:07:12.565Z,1026.07
2018-12-31T01:08:12.536Z,1026.12
2018-12-31T01:09:12.525Z,1026.17
2018-12-31T01:10:12.507Z,1026.18
2018-12-31T01:11:12.493Z,1026.15
2018-12-31T01:12:12.540Z,1026.18
2018-12-31T01:13:12.468Z,1026.18
2018-12-31T01:14:12.456Z,1026.19
2018-12-31T01:15:12.456Z,1026.22
2018-12-31T01:16:12.440Z,1026.18
2018-12-31T01:17:12.704Z,1026.26
2018-12-31T01:18:12.431Z,1026.27
2018-12-31T01:19:12.408Z,1026.27
2018-12-31T01:20:12.843Z,1026.21
2018-12-31T01:21:12.391Z,1026.28
2018-12-31T01:22:12.413Z,1026.25
2018-12-31T01:23:12.394Z,1026.22
2018-12-31T01:24:12.382Z,1026.21
2018-12-31T01:25:12.348Z,1026.25
2018-12-31T01:26:12.334Z,1026.26
2018-12-31T01:27:12.364Z,1026.27
2018-12-31T01:28:12.308Z,1026.23
2018-12-31T01:29:12.363Z,1026.28
2018-12-31T01:30:12.288Z,1026.22
2018-12-31T01:31:12.291Z,1026.22
2018-12-31T01:32:12.267Z,1026.22
2018-12-31T01:33:12.274Z,1026.20
2018-12-31T01:34:12.287Z,1026.18
2018-12-31T01:35:12.244Z,1026.14
2018-12-31T01:36:12.231Z,1026.10
2018-12-31T01:37:12.234Z,1026.14
2018-12-31T01:38:12.207Z,1026.17
2018-12-31T01:39:12.237Z,1026.15
2018-12-31T01:40:12.221Z,1026.19
2018-12-31T01:41:12.182Z,1026.20
2018-12-31T01:42:12.169Z,1026.22
2018-12-31T01:43:12.165Z,1026.15
2018-12-31T01:44:12.249Z,1026.19
2018-12-31T01:45:12.197Z,1026.15
2018-12-31T01:46:12.176Z,1026.12
2018-12-31T01:47:12.197Z,1026.13
2018-12-31T01:48:12.106Z,1026.13
2018-12-31T01:49:12.095Z,1026.06
2018-12-31T01:50:12.109Z,1026.09
2018-12-31T01:51:12.260Z,1026.09
2018-12-31T01:52:12.056Z,1026.06
2018-12-31T01:53:12.051Z,1026.05
2018-12-31T01:54:12.052Z,1026.02
2018-12-31T01:55:12.031Z,1026.06
2018-12-31T01:56:12.022Z,1026.07
2018-12-31T01:57:12.039Z,1026.04
2018-12-31T01:58:12.023Z,1026.05
2018-12-31T01:59:11.998Z,1026.06
2018-12-31T02:00:11.977Z,1026.03
2018-12-31T02:01:11.964Z,1026.13
2018-12-31T02:02:11.953Z,1026.09
2018-12-31T02:03:11.984Z,1026.04
2018-12-31T02:04:11.934Z,1026.03
2018-12-31T02:05:11.929Z,1025.99
2018-12-31T02:06:11.911Z,1025.99
2018-12-31T02:07:11.909Z,1026.01
2018-12-31T02:08:11.924Z,1026.04
2018-12-31T02:09:11.904Z,1026.06
2018-12-31T02:10:11.876Z,1026.05
2018-12-31T02:11:11.884Z,1026.09
2018-12-31T02:12:11.858Z,1026.00
2018-12-31T02:13:11.850Z,1026.03
2018-12-31T02:14:11.865Z,1025.98
2018-12-31T02:15:11.826Z,1026.05
2018-12-31T02:16:11.820Z,1026.01
2018-12-31T02:17:11.809Z,1026.04
2018-12-31T02:18:11.796Z,1026.00
2018-12-31T02:19:11.778Z,1026.07
2018-12-31T02:20:11.801Z,1026.06
2018-12-31T02:21:11.769Z,1026.12
2018-12-31T02:22:11.818Z,1026.09
2018-12-31T02:23:11.735Z,1026.14
2018-12-31T02:24:11.725Z,1026.09
2018-12-31T02:25:11.720Z,1026.08
2018-12-31T02:26:13.611Z,1026.08
2018-12-31T02:27:11.710Z,1026.09
2018-12-31T02:28:11.681Z,1026.08
2018-12-31T02:29:11.677Z,1026.17
2018-12-31T02:30:11.662Z,1026.17
2018-12-31T02:31:11.694Z,1026.16
2018-12-31T02:32:11.646Z,1026.13
2018-12-31T02:33:11.638Z,1026.14
2018-12-31T02:34:11.625Z,1026.23
2018-12-31T02:35:11.615Z,1026.18
2018-12-31T02:36:11.619Z,1026.13
2018-12-31T02:37:11.630Z,1026.14
2018-12-31T02:38:11.593Z,1026.17
2018-12-31T02:39:11.577Z,1026.17
2018-12-31T02:40:11.565Z,1026.20
2018-12-31T02:41:11.554Z,1026.18
2018-12-31T02:42:11.560Z,1026.25
2018-12-31T02:43:11.561Z,1026.25
2018-12-31T02:44:11.523Z,1026.31
2018-12-31T02:45:11.507Z,1026.27
2018-12-31T02:46:11.500Z,1026.24
2018-12-31T02:47:11.491Z,1026.22
2018-12-31T02:48:11.567Z,1026.23
2018-12-31T02:49:11.468Z,1026.24
2018-12-31T02:50:11.456Z,1026.21
2018-12-31T02:51:11.449Z,1026.13
2018-12-31T02:52:11.436Z,1026.23
2018-12-31T02:53:11.423Z,1026.18
2018-12-31T02:54:11.448Z,1026.16
2018-12-31T02:55:11.419Z,1026.09
2018-12-31T02:56:11.398Z,1026.14
2018-12-31T02:57:11.392Z,1026.15
2018-12-31T02:58:11.385Z,1026.19
2018-12-31T02:59:11.366Z,1026.16
2018-12-31T03:00:11.374Z,1026.14
2018-12-31T03:01:11.356Z,1026.20
2018-12-31T03:02:11.333Z,1026.15
2018-12-31T03:03:11.322Z,1026.12
2018-12-31T03:04:11.353Z,1025.99
2018-12-31T03:05:11.335Z,1026.05
2018-12-31T03:06:11.296Z,1025.99
2018-12-31T03:07:11.287Z,1026.00
2018-12-31T03:08:11.269Z,1025.95
2018-12-31T03:09:11.263Z,1026.04
2018-12-31T03:10:11.266Z,1026.07
2018-12-31T03:11:11.270Z,1026.10
2018-12-31T03:12:11.227Z,1026.25
2018-12-31T03:13:11.220Z,1026.26
2018-12-31T03:14:11.213Z,1026.24
2018-12-31T03:15:11.195Z,1026.20
2018-12-31T03:16:11.183Z,1026.21
2018-12-31T03:17:11.220Z,1026.17
2018-12-31T03:18:11.159Z,1026.10
2018-12-31T03:19:11.161Z,1026.12
2018-12-31T03:20:11.148Z,1026.10
2018-12-31T03:21:11.141Z,1026.15
2018-12-31T03:22:11.125Z,1026.13
2018-12-31T03:23:11.161Z,1026.07
2018-12-31T03:24:11.103Z,1026.13
2018-12-31T03:25:11.103Z,1026.12
2018-12-31T03:26:11.090Z,1026.17
2018-12-31T03:27:11.068Z,1026.14
2018-12-31T03:28:11.086Z,1026.19
2018-12-31T03:29:11.051Z,1026.18
2018-12-31T03:30:11.058Z,1026.18
2018-12-31T03:31:11.026Z,1026.19
2018-12-31T03:32:11.013Z,1026.25
2018-12-31T03:33:11.003Z,1026.23
2018-12-31T03:34:11.021Z,1026.18
2018-12-31T03:35:10.985Z,1026.17
2018-12-31T03:36:10.970Z,1026.20
2018-12-31T03:37:10.959Z,1026.23
2018-12-31T03:38:10.954Z,1026.14
2018-12-31T03:39:10.947Z,1026.14
2018-12-31T03:40:10.958Z,1026.12
2018-12-31T03:41:10.929Z,1026.19
2018-12-31T03:42:10.909Z,1026.14
2018-12-31T03:43:10.906Z,1026.19
2018-12-31T03:44:10.891Z,1026.19
2018-12-31T03:45:10.886Z,1026.24
2018-12-31T03:46:10.897Z,1026.24
2018-12-31T03:47:12.322Z,1026.25
2018-12-31T03:48:10.860Z,1026.31
2018-12-31T03:49:10.838Z,1026.28
2018-12-31T03:50:10.829Z,1026.27
2018-12-31T03:51:10.814Z,1026.31
2018-12-31T03:52:10.864Z,1026.32
2018-12-31T03:53:10.797Z,1026.30
2018-12-31T03:54:10.796Z,1026.28
2018-12-31T03:55:10.772Z,1026.32
2018-12-31T03:56:10.762Z,1026.33
2018-12-31T03:57:10.752Z,1026.29
2018-12-31T03:58:10.773Z,1026.30
2018-12-31T03:59:10.740Z,1026.32
2018-12-31T04:00:10.729Z,1026.32
2018-12-31T04:01:10.713Z,1026.34
2018-12-31T04:02:10.706Z,1026.30
2018-12-31T04:03:10.702Z,1026.31
2018-12-31T04:04:10.711Z,1026.32
2018-12-31T04:05:10.669Z,1026.23
2018-12-31T04:06:10.680Z,1026.27
2018-12-31T04:07:10.649Z,1026.26
2018-12-31T04:08:10.634Z,1026.22
2018-12-31T04:09:10.627Z,1026.27
2018-12-31T04:10:10.641Z,1026.18
2018-12-31T04:11:10.611Z,1026.12
2018-12-31T04:12:10.595Z,1026.11
2018-12-31T04:13:10.586Z,1026.06
2018-12-31T04:14:10.576Z,1026.03
2018-12-31T04:15:10.561Z,1025.98
2018-12-31T04:16:10.579Z,1025.95
2018-12-31T04:17:10.540Z,1025.95
2018-12-31T04:18:10.528Z,1025.94
2018-12-31T04:19:10.531Z,1025.98
2018-12-31T04:20:10.507Z,1025.96
2018-12-31T04:21:10.547Z,1025.99
2018-12-31T04:22:10.529Z,1025.98
2018-12-31T04:23:10.484Z,1026.01
2018-12-31T04:24:10.468Z,1026.00
2018-12-31T04:25:10.451Z,1026.03
2018-12-31T04:26:10.447Z,1026.04
2018-12-31T04:27:10.451Z,1026.11
2018-12-31T04:28:10.460Z,1026.12
2018-12-31T04:29:10.414Z,1026.11
2018-12-31T04:30:10.410Z,1026.15
2018-12-31T04:31:10.391Z,1026.14
2018-12-31T04:32:10.389Z,1026.22
2018-12-31T04:33:10.382Z,1026.17
2018-12-31T04:34:10.386Z,1026.20
2018-12-31T04:35:10.353Z,1026.27
2018-12-31T04:36:10.343Z,1026.28
2018-12-31T04:37:10.356Z,1026.29
2018-12-31T04:38:10.324Z,1026.30
2018-12-31T04:39:10.319Z,1026.30
2018-12-31T04:40:10.335Z,1026.27
2018-12-31T04:41:10.294Z,1026.28
2018-12-31T04:42:10.310Z,1026.23
2018-12-31T04:43:10.269Z,1026.21
2018-12-31T04:44:10.261Z,1026.20
2018-12-31T04:45:10.248Z,1026.11
2018-12-31T04:46:10.264Z,1026.17
2018-12-31T04:47:10.238Z,1026.14
2018-12-31T04:48:10.220Z,1026.19
2018-12-31T04:49:10.210Z,1026.13
2018-12-31T04:50:10.200Z,1026.17
2018-12-31T04:51:10.198Z,1026.18
2018-12-31T04:52:10.207Z,1026.17
2018-12-31T04:53:10.161Z,1026.19
2018-12-31T04:54:10.167Z,1026.18
2018-12-31T04:55:10.155Z,1026.19
2018-12-31T04:56:10.137Z,1026.19
2018-12-31T04:57:10.176Z,1026.17
2018-12-31T04:58:10.152Z,1026.21
2018-12-31T04:59:10.121Z,1026.18
2018-12-31T05:00:10.095Z,1026.20
2018-12-31T05:01:10.101Z,1026.19
2018-12-31T05:02:10.073Z,1026.21
2018-12-31T05:03:10.062Z,1026.21
2018-12-31T05:04:10.074Z,1026.25
2018-12-31T05:05:10.051Z,1026.28
2018-12-31T05:06:10.026Z,1026.28
2018-12-31T05:07:10.023Z,1026.29
2018-12-31T05:08:10.010Z,1026.30
2018-12-31T05:09:10.114Z,1026.32
2018-12-31T05:10:10.014Z,1026.30
2018-12-31T05:11:09.992Z,1026.33
2018-12-31T05:12:09.965Z,1026.33
2018-12-31T05:13:09.956Z,1026.24
2018-12-31T05:14:09.942Z,1026.25
2018-12-31T05:15:09.940Z,1026.31
2018-12-31T05:16:09.946Z,1026.29
2018-12-31T05:17:09.932Z,1026.29
2018-12-31T05:18:09.904Z,1026.29
2018-12-31T05:19:09.893Z,1026.32
2018-12-31T05:20:09.886Z,1026.24
2018-12-31T05:21:09.881Z,1026.28
2018-12-31T05:22:09.890Z,1026.25
2018-12-31T05:23:09.887Z,1026.27
2018-12-31T05:24:09.851Z,1026.27
2018-12-31T05:25:09.832Z,1026.16
2018-12-31T05:26:09.822Z,1026.21
2018-12-31T05:27:09.812Z,1026.25
2018-12-31T05:28:09.828Z,1026.25
2018-12-31T05:29:09.804Z,1026.26
2018-12-31T05:30:09.787Z,1026.29
2018-12-31T05:31:09.770Z,1026.28
2018-12-31T05:32:09.760Z,1026.22
2018-12-31T05:33:09.755Z,1026.23
2018-12-31T05:34:09.767Z,1026.27
2018-12-31T05:35:09.761Z,1026.31
2018-12-31T05:36:09.717Z,1026.35
2018-12-31T05:37:09.703Z,1026.38
2018-12-31T05:38:09.696Z,1026.34
2018-12-31T05:39:09.690Z,1026.37
2018-12-31T05:40:09.702Z,1026.38
2018-12-31T05:41:09.670Z,1026.38
2018-12-31T05:42:09.654Z,1026.39
2018-12-31T05:43:09.638Z,1026.39
2018-12-31T05:44:09.631Z,1026.36
2018-12-31T05:45:09.623Z,1026.43
2018-12-31T05:46:09.638Z,1026.43
2018-12-31T05:47:09.610Z,1026.38
2018-12-31T05:48:09.599Z,1026.45
2018-12-31T05:49:09.578Z,1026.42
2018-12-31T05:50:09.570Z,1026.38
2018-12-31T05:51:09.566Z,1026.39
2018-12-31T05:52:09.589Z,1026.33
2018-12-31T05:53:09.546Z,1026.31
2018-12-31T05:54:09.531Z,1026.22
2018-12-31T05:55:09.520Z,1026.24
2018-12-31T05:56:09.512Z,1026.24
2018-12-31T05:57:09.501Z,1026.24
2018-12-31T05:58:09.603Z,1026.25
2018-12-31T05:59:09.482Z,1026.24
2018-12-31T06:00:09.478Z,1026.30
2018-12-31T06:01:09.452Z,1026.34
2018-12-31T06:02:09.448Z,1026.29
2018-12-31T06:03:09.437Z,1026.34
2018-12-31T06:04:09.472Z,1026.31
2018-12-31T06:05:09.414Z,1026.35
2018-12-31T06:06:09.405Z,1026.34
2018-12-31T06:07:09.393Z,1026.38
2018-12-31T06:08:09.396Z,1026.38
2018-12-31T06:09:09.375Z,1026.39
2018-12-31T06:10:09.391Z,1026.43
2018-12-31T06:11:09.353Z,1026.40
2018-12-31T06:12:09.343Z,1026.41
2018-12-31T06:13:09.338Z,1026.43
2018-12-31T06:14:09.327Z,1026.44
2018-12-31T06:15:09.319Z,1026.42
2018-12-31T06:16:09.330Z,1026.38
2018-12-31T06:17:09.301Z,1026.40
2018-12-31T06:18:09.313Z,1026.45
2018-12-31T06:19:09.264Z,1026.39
2018-12-31T06:20:09.255Z,1026.42
2018-12-31T06:21:09.263Z,1026.43
2018-12-31T06:22:09.272Z,1026.48
2018-12-31T06:23:09.272Z,1026.48
2018-12-31T06:24:10.581Z,1026.49
2018-12-31T06:25:09.227Z,1026.45
2018-12-31T06:26:09.218Z,1026.49
2018-12-31T06:27:09.200Z,1026.48
2018-12-31T06:28:09.610Z,1026.45
2018-12-31T06:29:10.091Z,1026.47
2018-12-31T06:30:09.156Z,1026.44
2018-12-31T06:31:09.199Z,1026.42
2018-12-31T06:32:09.128Z,1026.46
2018-12-31T06:33:09.122Z,1026.46
2018-12-31T06:34:09.226Z,1026.48
2018-12-31T06:35:09.095Z,1026.48
2018-12-31T06:36:09.099Z,1026.52
2018-12-31T06:37:09.078Z,1026.46
2018-12-31T06:38:09.079Z,1026.49
2018-12-31T06:39:09.068Z,1026.48
2018-12-31T06:40:09.085Z,1026.48
2018-12-31T06:41:09.036Z,1026.45
2018-12-31T06:42:09.037Z,1026.48
2018-12-31T06:43:09.014Z,1026.49
2018-12-31T06:44:09.000Z,1026.48
2018-12-31T06:45:08.993Z,1026.50
2018-12-31T06:46:09.011Z,1026.54
2018-12-31T06:47:08.970Z,1026.58
2018-12-31T06:48:09.002Z,1026.57
2018-12-31T06:49:08.948Z,1026.59
2018-12-31T06:50:08.944Z,1026.59
2018-12-31T06:51:08.931Z,1026.60
2018-12-31T06:52:08.951Z,1026.67
2018-12-31T06:53:08.912Z,1026.65
2018-12-31T06:54:08.897Z,1026.67
2018-12-31T06:55:08.904Z,1026.63
2018-12-31T06:56:08.882Z,1026.67
2018-12-31T06:57:08.867Z,1026.69
2018-12-31T06:58:08.886Z,1026.72
2018-12-31T06:59:08.842Z,1026.73
2018-12-31T07:00:08.844Z,1026.76
2018-12-31T07:01:09.560Z,1026.73
2018-12-31T07:02:08.827Z,1026.75
2018-12-31T07:03:08.813Z,1026.80
2018-12-31T07:04:08.824Z,1026.78
2018-12-31T07:05:08.782Z,1026.74
2018-12-31T07:06:08.778Z,1026.76
2018-12-31T07:07:08.770Z,1026.76
2018-12-31T07:08:08.755Z,1026.79
2018-12-31T07:09:08.747Z,1026.80
2018-12-31T07:10:08.755Z,1026.82
2018-12-31T07:11:08.723Z,1026.86
2018-12-31T07:12:08.704Z,1026.85
2018-12-31T07:13:08.700Z,1026.86
2018-12-31T07:14:08.690Z,1026.89
2018-12-31T07:15:08.686Z,1026.84
2018-12-31T07:16:08.692Z,1026.89
2018-12-31T07:17:08.652Z,1026.93
2018-12-31T07:18:08.655Z,1026.94
2018-12-31T07:19:08.638Z,1026.98
2018-12-31T07:20:08.630Z,1026.98
2018-12-31T07:21:08.618Z,1026.94
2018-12-31T07:22:08.684Z,1027.01
2018-12-31T07:23:08.588Z,1027.05
2018-12-31T07:24:08.623Z,1027.07
2018-12-31T07:25:08.577Z,1027.05
2018-12-31T07:26:08.687Z,1027.03
2018-12-31T07:27:08.561Z,1027.06
2018-12-31T07:28:08.631Z,1027.03
2018-12-31T07:29:08.572Z,1027.10
2018-12-31T07:30:08.535Z,1027.06
2018-12-31T07:31:08.506Z,1027.06
2018-12-31T07:32:08.508Z,1027.11
2018-12-31T07:33:08.492Z,1027.11
2018-12-31T07:34:08.507Z,1027.07
2018-12-31T07:35:08.468Z,1027.11
2018-12-31T07:36:08.457Z,1027.16
2018-12-31T07:37:08.466Z,1027.12
2018-12-31T07:38:08.446Z,1027.18
2018-12-31T07:39:08.427Z,1027.16
2018-12-31T07:40:08.449Z,1027.13
2018-12-31T07:41:08.401Z,1027.11
2018-12-31T07:42:08.395Z,1027.11
2018-12-31T07:43:09.641Z,1027.05
2018-12-31T07:44:08.376Z,1027.07
2018-12-31T07:45:08.361Z,1027.10
2018-12-31T07:46:08.384Z,1027.07
2018-12-31T07:47:08.343Z,1027.05
2018-12-31T07:48:08.397Z,1027.03
2018-12-31T07:49:08.324Z,1027.01
2018-12-31T07:50:08.307Z,1027.03
2018-12-31T07:51:08.315Z,1027.03
2018-12-31T07:52:08.314Z,1027.02
2018-12-31T07:53:08.297Z,1027.06
2018-12-31T07:54:08.265Z,1027.06
2018-12-31T07:55:08.253Z,1027.04
2018-12-31T07:56:08.265Z,1027.07
2018-12-31T07:57:08.232Z,1027.02
2018-12-31T07:58:08.257Z,1027.00
2018-12-31T07:59:08.219Z,1026.97
2018-12-31T08:00:08.217Z,1026.98
2018-12-31T08:01:08.210Z,1027.01
2018-12-31T08:02:08.185Z,1027.04
2018-12-31T08:03:08.202Z,1027.08
2018-12-31T08:04:08.229Z,1027.09
2018-12-31T08:05:08.150Z,1027.10
2018-12-31T08:06:08.148Z,1027.06
2018-12-31T08:07:08.133Z,1027.09
2018-12-31T08:08:08.122Z,1027.05
2018-12-31T08:09:08.115Z,1027.09
2018-12-31T08:10:08.120Z,1027.10
2018-12-31T08:11:08.110Z,1027.18
2018-12-31T08:12:08.076Z,1027.15
2018-12-31T08:13:08.158Z,1027.14
2018-12-31T08:14:08.059Z,1027.12
2018-12-31T08:15:08.066Z,1027.11
2018-12-31T08:16:08.068Z,1027.13
2018-12-31T08:17:08.059Z,1027.12
2018-12-31T08:18:08.049Z,1027.18
2018-12-31T08:19:08.009Z,1027.15
2018-12-31T08:20:07.992Z,1027.16
2018-12-31T08:21:07.984Z,1027.12
2018-12-31T08:22:08.011Z,1027.12
2018-12-31T08:23:07.985Z,1027.11
2018-12-31T08:24:07.957Z,1027.11
2018-12-31T08:25:07.947Z,1027.12
2018-12-31T08:26:07.968Z,1027.13
2018-12-31T08:27:07.920Z,1027.13
2018-12-31T08:28:07.940Z,1027.14
2018-12-31T08:29:07.905Z,1027.14
2018-12-31T08:30:07.902Z,1027.17
2018-12-31T08:31:07.882Z,1027.12
2018-12-31T08:32:07.883Z,1027.12
2018-12-31T08:33:07.852Z,1027.14
2018-12-31T08:34:07.969Z,1027.17
2018-12-31T08:35:07.840Z,1027.18
2018-12-31T08:36:07.884Z,1027.16
2018-12-31T08:37:08.300Z,1027.13
2018-12-31T08:38:08.940Z,1027.11
2018-12-31T08:39:08.323Z,1027.15
2018-12-31T08:40:08.136Z,1027.14
2018-12-31T08:41:08.103Z,1027.18
2018-12-31T08:42:07.782Z,1027.18
2018-12-31T08:43:07.863Z,1027.17
2018-12-31T08:44:07.894Z,1027.16
2018-12-31T08:45:07.827Z,1027.18
2018-12-31T08:46:07.817Z,1027.15
2018-12-31T08:47:07.705Z,1027.16
2018-12-31T08:48:07.848Z,1027.18
2018-12-31T08:49:07.714Z,1027.17
2018-12-31T08:50:07.681Z,1027.21
2018-12-31T08:51:07.670Z,1027.18
2018-12-31T08:52:07.686Z,1027.17
2018-12-31T08:53:07.718Z,1027.20
2018-12-31T08:54:07.652Z,1027.22
2018-12-31T08:55:07.710Z,1027.23
2018-12-31T08:56:07.615Z,1027.20
2018-12-31T08:57:07.713Z,1027.23
2018-12-31T08:58:07.638Z,1027.26
2018-12-31T08:59:07.589Z,1027.28
2018-12-31T09:00:07.571Z,1027.20
2018-12-31T09:01:07.762Z,1027.19
2018-12-31T09:02:07.545Z,1027.18
2018-12-31T09:03:07.617Z,1027.15
2018-12-31T09:04:07.525Z,1027.14
2018-12-31T09:05:07.515Z,1027.21
2018-12-31T09:06:07.512Z,1027.21
2018-12-31T09:07:07.537Z,1027.26
2018-12-31T09:08:07.488Z,1027.23
2018-12-31T09:09:07.508Z,1027.18
2018-12-31T09:10:07.483Z,1027.13
2018-12-31T09:11:07.454Z,1027.14
2018-12-31T09:12:07.457Z,1027.14
2018-12-31T09:13:07.429Z,1027.13
2018-12-31T09:14:07.423Z,1027.16
2018-12-31T09:15:07.473Z,1027.16
2018-12-31T09:16:07.415Z,1027.13
2018-12-31T09:17:07.395Z,1027.15
2018-12-31T09:18:07.494Z,1027.21
2018-12-31T09:19:07.420Z,1027.23
2018-12-31T09:20:07.357Z,1027.17
2018-12-31T09:21:07.362Z,1027.21
2018-12-31T09:22:07.355Z,1027.21
2018-12-31T09:23:07.330Z,1027.17
2018-12-31T09:24:07.337Z,1027.19
2018-12-31T09:25:07.302Z,1027.23
2018-12-31T09:26:07.345Z,1027.26
2018-12-31T09:27:07.292Z,1027.23
2018-12-31T09:28:07.285Z,1027.31
2018-12-31T09:29:07.267Z,1027.30
2018-12-31T09:30:07.252Z,1027.22
2018-12-31T09:31:07.864Z,1027.24
2018-12-31T09:32:07.269Z,1027.22
2018-12-31T09:33:07.232Z,1027.19
2018-12-31T09:34:07.217Z,1027.12
2018-12-31T09:35:07.205Z,1027.10
2018-12-31T09:36:07.197Z,1027.13
2018-12-31T09:37:07.227Z,1027.14
2018-12-31T09:38:07.231Z,1027.09
2018-12-31T09:39:07.169Z,1027.09
2018-12-31T09:40:07.151Z,1027.06
2018-12-31T09:41:07.180Z,1027.04
2018-12-31T09:42:07.123Z,1027.09
2018-12-31T09:43:07.154Z,1027.04
2018-12-31T09:44:07.118Z,1027.04
2018-12-31T09:45:07.111Z,1027.01
2018-12-31T09:46:07.096Z,1027.05
2018-12-31T09:47:07.077Z,1027.00
2018-12-31T09:48:07.064Z,1026.97
2018-12-31T09:49:07.087Z,1026.98
2018-12-31T09:50:07.040Z,1026.92
2018-12-31T09:51:07.034Z,1026.98
2018-12-31T09:52:07.051Z,1026.95
2018-12-31T09:53:07.019Z,1026.89
2018-12-31T09:54:07.019Z,1026.89
2018-12-31T09:55:07.021Z,1026.85
2018-12-31T09:56:06.993Z,1026.78
2018-12-31T09:57:06.968Z,1026.76
2018-12-31T09:58:06.967Z,1026.79
2018-12-31T09:59:06.954Z,1026.81
2018-12-31T10:00:06.951Z,1026.75
2018-12-31T10:01:06.971Z,1026.76
2018-12-31T10:02:06.920Z,1026.73
2018-12-31T10:03:06.909Z,1026.77
2018-12-31T10:04:06.904Z,1026.74
2018-12-31T10:05:06.889Z,1026.75
2018-12-31T10:06:06.893Z,1026.74
2018-12-31T10:07:06.882Z,1026.75
2018-12-31T10:08:06.864Z,1026.74
2018-12-31T10:09:06.841Z,1026.72
2018-12-31T10:10:06.836Z,1026.74
2018-12-31T10:11:06.842Z,1026.78
2018-12-31T10:12:06.835Z,1026.75
2018-12-31T10:13:06.811Z,1026.71
2018-12-31T10:14:06.802Z,1026.71
2018-12-31T10:15:06.786Z,1026.72
2018-12-31T10:16:06.773Z,1026.75
2018-12-31T10:17:06.811Z,1026.80
2018-12-31T10:18:06.748Z,1026.76
2018-12-31T10:19:06.737Z,1026.78
2018-12-31T10:20:06.726Z,1026.83
2018-12-31T10:21:06.715Z,1026.82
2018-12-31T10:22:06.721Z,1026.80
2018-12-31T10:23:06.726Z,1026.81
2018-12-31T10:24:06.689Z,1026.78
2018-12-31T10:25:06.766Z,1026.80
2018-12-31T10:26:06.826Z,1026.77
2018-12-31T10:27:06.656Z,1026.75
2018-12-31T10:28:06.649Z,1026.74
2018-12-31T10:29:06.662Z,1026.75
2018-12-31T10:30:06.626Z,1026.73
2018-12-31T10:31:06.632Z,1026.78
2018-12-31T10:32:06.615Z,1026.77
2018-12-31T10:33:06.608Z,1026.79
2018-12-31T10:34:06.614Z,1026.79
2018-12-31T10:35:06.596Z,1026.79
2018-12-31T10:36:06.562Z,1026.77
2018-12-31T10:37:06.565Z,1026.77
2018-12-31T10:38:06.576Z,1026.71
2018-12-31T10:39:06.527Z,1026.71
2018-12-31T10:40:06.548Z,1026.78
2018-12-31T10:41:06.504Z,1026.71
2018-12-31T10:42:06.571Z,1026.67
2018-12-31T10:43:06.506Z,1026.65
2018-12-31T10:44:06.473Z,1026.62
2018-12-31T10:45:06.462Z,1026.67
2018-12-31T10:46:06.514Z,1026.66
2018-12-31T10:47:06.448Z,1026.64
2018-12-31T10:48:06.431Z,1026.61
2018-12-31T10:49:06.461Z,1026.69
2018-12-31T10:50:06.413Z,1026.59
2018-12-31T10:51:06.409Z,1026.60
2018-12-31T10:52:08.019Z,1026.61
2018-12-31T10:53:06.377Z,1026.67
2018-12-31T10:54:06.392Z,1026.61
2018-12-31T10:55:06.383Z,1026.60
2018-12-31T10:56:06.386Z,1026.64
2018-12-31T10:57:06.409Z,1026.80
2018-12-31T10:58:06.345Z,1026.64
2018-12-31T10:59:06.342Z,1026.65
2018-12-31T11:00:06.362Z,1026.55
2018-12-31T11:01:06.313Z,1026.53
2018-12-31T11:02:06.292Z,1026.58
2018-12-31T11:03:06.334Z,1026.50
2018-12-31T11:04:06.296Z,1026.46
2018-12-31T11:05:06.286Z,1026.60
2018-12-31T11:06:06.277Z,1026.56
2018-12-31T11:07:06.250Z,1026.55
2018-12-31T11:08:06.296Z,1026.56
2018-12-31T11:09:06.241Z,1026.50
2018-12-31T11:10:06.274Z,1026.52
2018-12-31T11:11:06.226Z,1026.56
2018-12-31T11:12:06.205Z,1026.57
2018-12-31T11:13:06.315Z,1026.59
2018-12-31T11:14:06.231Z,1026.73
2018-12-31T11:15:06.165Z,1026.64
2018-12-31T11:16:06.154Z,1026.63
2018-12-31T11:17:06.314Z,1026.66
2018-12-31T11:18:06.130Z,1026.65
2018-12-31T11:19:06.133Z,1026.64
2018-12-31T11:20:06.364Z,1026.57
2018-12-31T11:21:06.122Z,1026.53
2018-12-31T11:22:06.143Z,1026.55
2018-12-31T11:23:06.167Z,1026.57
2018-12-31T11:24:06.266Z,1026.58
2018-12-31T11:25:06.191Z,1026.55
2018-12-31T11:26:06.235Z,1026.49
2018-12-31T11:27:06.564Z,1026.49
2018-12-31T11:28:06.200Z,1026.46
2018-12-31T11:29:06.351Z,1026.48
2018-12-31T11:30:06.194Z,1026.49
2018-12-31T11:31:06.443Z,1026.43
2018-12-31T11:32:06.177Z,1026.39
2018-12-31T11:33:06.107Z,1026.37
2018-12-31T11:34:06.119Z,1026.40
2018-12-31T11:35:06.080Z,1026.43
2018-12-31T11:36:06.135Z,1026.46
2018-12-31T11:37:06.254Z,1026.41
2018-12-31T11:38:06.008Z,1026.34
2018-12-31T11:39:05.948Z,1026.34
2018-12-31T11:40:05.944Z,1026.33
2018-12-31T11:41:05.958Z,1026.35
2018-12-31T11:42:05.864Z,1026.37
2018-12-31T11:43:05.876Z,1026.31
2018-12-31T11:44:05.865Z,1026.29
2018-12-31T11:45:05.838Z,1026.33
2018-12-31T11:46:05.820Z,1026.29
2018-12-31T11:47:05.826Z,1026.28
2018-12-31T11:48:05.804Z,1026.35
2018-12-31T11:49:05.814Z,1026.32
2018-12-31T11:50:05.805Z,1026.23
2018-12-31T11:51:05.765Z,1026.28
2018-12-31T11:52:05.758Z,1026.26
2018-12-31T11:53:05.753Z,1026.23
2018-12-31T11:54:05.780Z,1026.21
2018-12-31T11:55:05.732Z,1026.17
2018-12-31T11:56:05.718Z,1026.14
2018-12-31T11:57:05.703Z,1026.11
2018-12-31T11:58:05.747Z,1026.19
2018-12-31T11:59:05.698Z,1026.09
2018-12-31T12:00:05.715Z,1026.10
2018-12-31T12:01:05.668Z,1026.11
2018-12-31T12:02:05.694Z,1026.01
2018-12-31T12:03:05.643Z,1026.07
2018-12-31T12:04:05.632Z,1025.97
2018-12-31T12:05:05.636Z,1026.07